sensor_id;sensor_type;location;lat;lon;timestamp;P1;durP1;ratioP1;P2;durP2;ratioP2
66384;SDS011;53426;55.872;37.462;2022-10-16T00:01:15;11.35;;;5.18;;
66384;SDS011;53426;55.872;37.462;2022-10-16T00:03:42;9.60;;;5.95;;
66384;SDS011;53426;55.872;37.462;2022-10-16T00:06:10;10.38;;;6.20;;
66384;SDS011;53426;55.872;37.462;2022-10-16T00:08:36;7.93;;;5.72;;
66384;SDS011;53426;55.872;37.462;2022-10-16T00:11:04;7.45;;;5.93;;
66384;SDS011;53426;55.872;37.462;2022-10-16T00:13:35;10.85;;;5.80;;
66384;SDS011;53426;55.872;37.462;2022-10-16T00:16:02;14.45;;;6.00;;
66384;SDS011;53426;55.872;37.462;2022-10-16T00:18:29;7.78;;;5.68;;
66384;SDS011;53426;55.872;37.462;2022-10-16T00:20:55;11.02;;;5.25;;
66384;SDS011;53426;55.872;37.462;2022-10-16T00:23:45;8.20;;;5.60;;
66384;SDS011;53426;55.872;37.462;2022-10-16T00:26:13;8.00;;;6.07;;
66384;SDS011;53426;55.872;37.462;2022-10-16T00:28:41;11.07;;;6.00;;
66384;SDS011;53426;55.872;37.462;2022-10-16T00:31:08;12.27;;;6.38;;
66384;SDS011;53426;55.872;37.462;2022-10-16T00:33:36;7.55;;;5.63;;
66384;SDS011;53426;55.872;37.462;2022-10-16T00:36:03;10.30;;;6.13;;
66384;SDS011;53426;55.872;37.462;2022-10-16T00:38:31;8.73;;;6.10;;
66384;SDS011;53426;55.872;37.462;2022-10-16T00:40:56;9.40;;;6.13;;
66384;SDS011;53426;55.872;37.462;2022-10-16T00:43:33;6.68;;;5.18;;
66384;SDS011;53426;55.872;37.462;2022-10-16T00:48:43;9.30;;;5.70;;
66384;SDS011;53426;55.872;37.462;2022-10-16T00:51:15;11.10;;;6.00;;
66384;SDS011;53426;55.872;37.462;2022-10-16T00:53:41;10.10;;;6.00;;
66384;SDS011;53426;55.872;37.462;2022-10-16T00:56:07;9.25;;;6.07;;
66384;SDS011;53426;55.872;37.462;2022-10-16T00:58:33;12.88;;;5.93;;
66384;SDS011;53426;55.872;37.462;2022-10-16T01:00:59;10.10;;;6.20;;
66384;SDS011;53426;55.872;37.462;2022-10-16T01:03:29;8.63;;;5.60;;
66384;SDS011;53426;55.872;37.462;2022-10-16T01:13:48;15.40;;;6.22;;
66384;SDS011;53426;55.872;37.462;2022-10-16T01:17:03;14.65;;;5.43;;
66384;SDS011;53426;55.872;37.462;2022-10-16T01:22:30;8.57;;;6.05;;
66384;SDS011;53426;55.872;37.462;2022-10-16T01:25:05;18.42;;;6.07;;
66384;SDS011;53426;55.872;37.462;2022-10-16T01:27:37;9.60;;;5.27;;
66384;SDS011;53426;55.872;37.462;2022-10-16T01:30:13;9.98;;;5.88;;
66384;SDS011;53426;55.872;37.462;2022-10-16T01:32:45;7.40;;;5.18;;
66384;SDS011;53426;55.872;37.462;2022-10-16T01:35:37;19.80;;;6.68;;
66384;SDS011;53426;55.872;37.462;2022-10-16T01:38:08;8.45;;;5.65;;
66384;SDS011;53426;55.872;37.462;2022-10-16T01:40:42;8.57;;;5.75;;
66384;SDS011;53426;55.872;37.462;2022-10-16T01:43:22;8.13;;;5.60;;
66384;SDS011;53426;55.872;37.462;2022-10-16T01:45:52;8.32;;;6.03;;
66384;SDS011;53426;55.872;37.462;2022-10-16T01:48:18;14.23;;;5.70;;
66384;SDS011;53426;55.872;37.462;2022-10-16T01:50:56;11.18;;;6.07;;
66384;SDS011;53426;55.872;37.462;2022-10-16T01:53:26;7.50;;;5.22;;
66384;SDS011;53426;55.872;37.462;2022-10-16T01:55:53;21.13;;;6.20;;
66384;SDS011;53426;55.872;37.462;2022-10-16T01:58:21;10.35;;;5.47;;
66384;SDS011;53426;55.872;37.462;2022-10-16T02:00:49;10.48;;;5.35;;
66384;SDS011;53426;55.872;37.462;2022-10-16T02:03:18;10.07;;;5.82;;
66384;SDS011;53426;55.872;37.462;2022-10-16T02:05:46;10.93;;;6.15;;
66384;SDS011;53426;55.872;37.462;2022-10-16T02:08:12;7.15;;;5.60;;
66384;SDS011;53426;55.872;37.462;2022-10-16T02:10:39;10.30;;;6.13;;
66384;SDS011;53426;55.872;37.462;2022-10-16T02:13:12;10.18;;;6.40;;
66384;SDS011;53426;55.872;37.462;2022-10-16T02:16:02;13.32;;;5.95;;
66384;SDS011;53426;55.872;37.462;2022-10-16T02:18:28;17.42;;;6.78;;
66384;SDS011;53426;55.872;37.462;2022-10-16T02:21:00;7.43;;;5.60;;
66384;SDS011;53426;55.872;37.462;2022-10-16T02:23:40;8.52;;;6.00;;
66384;SDS011;53426;55.872;37.462;2022-10-16T02:26:13;11.20;;;5.90;;
66384;SDS011;53426;55.872;37.462;2022-10-16T02:28:45;8.23;;;4.90;;
66384;SDS011;53426;55.872;37.462;2022-10-16T02:31:18;11.55;;;5.63;;
66384;SDS011;53426;55.872;37.462;2022-10-16T02:33:51;12.38;;;6.15;;
66384;SDS011;53426;55.872;37.462;2022-10-16T02:36:20;6.80;;;5.53;;
66384;SDS011;53426;55.872;37.462;2022-10-16T02:38:46;10.55;;;5.78;;
66384;SDS011;53426;55.872;37.462;2022-10-16T02:41:12;10.57;;;5.53;;
66384;SDS011;53426;55.872;37.462;2022-10-16T02:43:40;10.13;;;5.88;;
66384;SDS011;53426;55.872;37.462;2022-10-16T02:46:05;13.48;;;6.10;;
66384;SDS011;53426;55.872;37.462;2022-10-16T02:48:31;8.35;;;5.88;;
66384;SDS011;53426;55.872;37.462;2022-10-16T02:50:57;10.15;;;5.75;;
66384;SDS011;53426;55.872;37.462;2022-10-16T02:53:23;10.80;;;5.57;;
66384;SDS011;53426;55.872;37.462;2022-10-16T02:55:48;12.30;;;5.95;;
66384;SDS011;53426;55.872;37.462;2022-10-16T02:58:14;11.48;;;5.60;;
66384;SDS011;53426;55.872;37.462;2022-10-16T03:00:41;11.23;;;5.90;;
66384;SDS011;53426;55.872;37.462;2022-10-16T03:03:08;8.63;;;5.35;;
66384;SDS011;53426;55.872;37.462;2022-10-16T03:05:33;8.52;;;5.30;;
66384;SDS011;53426;55.872;37.462;2022-10-16T03:07:59;9.68;;;5.45;;
66384;SDS011;53426;55.872;37.462;2022-10-16T03:10:26;12.32;;;5.10;;
66384;SDS011;53426;55.872;37.462;2022-10-16T03:12:55;12.57;;;6.18;;
66384;SDS011;53426;55.872;37.462;2022-10-16T03:15:21;8.88;;;5.45;;
66384;SDS011;53426;55.872;37.462;2022-10-16T03:17:48;9.25;;;5.35;;
66384;SDS011;53426;55.872;37.462;2022-10-16T03:20:14;12.85;;;5.28;;
66384;SDS011;53426;55.872;37.462;2022-10-16T03:22:39;15.02;;;5.95;;
66384;SDS011;53426;55.872;37.462;2022-10-16T03:25:06;11.68;;;5.63;;
66384;SDS011;53426;55.872;37.462;2022-10-16T03:27:32;13.82;;;5.78;;
66384;SDS011;53426;55.872;37.462;2022-10-16T03:30:00;10.38;;;5.97;;
66384;SDS011;53426;55.872;37.462;2022-10-16T03:32:27;9.50;;;5.50;;
66384;SDS011;53426;55.872;37.462;2022-10-16T03:34:53;10.30;;;5.60;;
66384;SDS011;53426;55.872;37.462;2022-10-16T03:37:21;9.93;;;5.53;;
66384;SDS011;53426;55.872;37.462;2022-10-16T03:39:47;9.90;;;4.95;;
66384;SDS011;53426;55.872;37.462;2022-10-16T03:42:13;9.18;;;5.15;;
66384;SDS011;53426;55.872;37.462;2022-10-16T03:44:38;10.88;;;5.30;;
66384;SDS011;53426;55.872;37.462;2022-10-16T03:47:04;13.70;;;5.55;;
66384;SDS011;53426;55.872;37.462;2022-10-16T03:49:30;9.02;;;5.05;;
66384;SDS011;53426;55.872;37.462;2022-10-16T03:51:55;13.07;;;5.70;;
66384;SDS011;53426;55.872;37.462;2022-10-16T03:54:21;18.98;;;5.70;;
66384;SDS011;53426;55.872;37.462;2022-10-16T03:56:47;7.43;;;4.82;;
66384;SDS011;53426;55.872;37.462;2022-10-16T03:59:13;6.70;;;5.07;;
66384;SDS011;53426;55.872;37.462;2022-10-16T04:01:39;11.02;;;5.90;;
66384;SDS011;53426;55.872;37.462;2022-10-16T04:04:05;7.13;;;5.03;;
66384;SDS011;53426;55.872;37.462;2022-10-16T04:06:31;12.63;;;5.15;;
66384;SDS011;53426;55.872;37.462;2022-10-16T04:08:57;18.00;;;5.80;;
66384;SDS011;53426;55.872;37.462;2022-10-16T04:11:23;9.93;;;5.90;;
66384;SDS011;53426;55.872;37.462;2022-10-16T04:13:49;11.13;;;5.93;;
66384;SDS011;53426;55.872;37.462;2022-10-16T04:16:15;14.43;;;6.18;;
66384;SDS011;53426;55.872;37.462;2022-10-16T04:18:40;11.55;;;5.72;;
66384;SDS011;53426;55.872;37.462;2022-10-16T04:21:06;9.35;;;5.25;;
66384;SDS011;53426;55.872;37.462;2022-10-16T04:23:32;11.65;;;5.70;;
66384;SDS011;53426;55.872;37.462;2022-10-16T04:25:59;11.18;;;5.97;;
66384;SDS011;53426;55.872;37.462;2022-10-16T04:28:25;7.43;;;5.63;;
66384;SDS011;53426;55.872;37.462;2022-10-16T04:30:52;8.45;;;5.97;;
66384;SDS011;53426;55.872;37.462;2022-10-16T04:33:17;8.38;;;5.13;;
66384;SDS011;53426;55.872;37.462;2022-10-16T04:35:43;7.72;;;5.95;;
66384;SDS011;53426;55.872;37.462;2022-10-16T04:38:09;7.93;;;4.75;;
66384;SDS011;53426;55.872;37.462;2022-10-16T04:40:35;15.55;;;5.57;;
66384;SDS011;53426;55.872;37.462;2022-10-16T04:43:02;6.30;;;5.18;;
66384;SDS011;53426;55.872;37.462;2022-10-16T04:45:28;14.25;;;5.43;;
66384;SDS011;53426;55.872;37.462;2022-10-16T04:47:58;8.93;;;5.40;;
66384;SDS011;53426;55.872;37.462;2022-10-16T04:50:24;6.68;;;5.38;;
66384;SDS011;53426;55.872;37.462;2022-10-16T04:53:04;10.20;;;5.20;;
66384;SDS011;53426;55.872;37.462;2022-10-16T04:55:30;12.85;;;5.38;;
66384;SDS011;53426;55.872;37.462;2022-10-16T04:57:56;7.93;;;5.10;;
66384;SDS011;53426;55.872;37.462;2022-10-16T05:00:22;5.95;;;4.82;;
66384;SDS011;53426;55.872;37.462;2022-10-16T05:02:52;8.82;;;5.20;;
66384;SDS011;53426;55.872;37.462;2022-10-16T05:05:17;8.20;;;4.65;;
66384;SDS011;53426;55.872;37.462;2022-10-16T05:10:21;7.78;;;5.07;;
66384;SDS011;53426;55.872;37.462;2022-10-16T05:12:47;6.78;;;5.40;;
66384;SDS011;53426;55.872;37.462;2022-10-16T05:15:12;8.50;;;5.20;;
66384;SDS011;53426;55.872;37.462;2022-10-16T05:17:38;8.27;;;4.65;;
66384;SDS011;53426;55.872;37.462;2022-10-16T05:20:04;9.80;;;5.18;;
66384;SDS011;53426;55.872;37.462;2022-10-16T05:22:30;8.32;;;5.00;;
66384;SDS011;53426;55.872;37.462;2022-10-16T05:24:56;5.57;;;4.82;;
66384;SDS011;53426;55.872;37.462;2022-10-16T05:27:22;6.90;;;4.93;;
66384;SDS011;53426;55.872;37.462;2022-10-16T05:29:49;14.07;;;5.22;;
66384;SDS011;53426;55.872;37.462;2022-10-16T05:32:16;9.60;;;5.13;;
66384;SDS011;53426;55.872;37.462;2022-10-16T05:34:43;9.48;;;5.07;;
66384;SDS011;53426;55.872;37.462;2022-10-16T05:37:09;10.55;;;4.65;;
66384;SDS011;53426;55.872;37.462;2022-10-16T05:39:38;9.15;;;4.60;;
66384;SDS011;53426;55.872;37.462;2022-10-16T05:42:04;9.43;;;4.80;;
66384;SDS011;53426;55.872;37.462;2022-10-16T05:44:31;9.65;;;4.93;;
66384;SDS011;53426;55.872;37.462;2022-10-16T05:46:57;11.05;;;4.85;;
66384;SDS011;53426;55.872;37.462;2022-10-16T05:49:23;9.80;;;5.28;;
66384;SDS011;53426;55.872;37.462;2022-10-16T05:51:49;6.60;;;5.10;;
66384;SDS011;53426;55.872;37.462;2022-10-16T05:54:16;7.22;;;4.75;;
66384;SDS011;53426;55.872;37.462;2022-10-16T05:56:42;4.80;;;4.40;;
66384;SDS011;53426;55.872;37.462;2022-10-16T05:59:07;8.23;;;4.85;;
66384;SDS011;53426;55.872;37.462;2022-10-16T06:01:33;6.47;;;4.72;;
66384;SDS011;53426;55.872;37.462;2022-10-16T06:04:00;9.40;;;5.15;;
66384;SDS011;53426;55.872;37.462;2022-10-16T06:06:28;8.65;;;5.22;;
66384;SDS011;53426;55.872;37.462;2022-10-16T06:08:55;8.85;;;5.07;;
66384;SDS011;53426;55.872;37.462;2022-10-16T06:11:23;7.90;;;4.80;;
66384;SDS011;53426;55.872;37.462;2022-10-16T06:13:51;12.43;;;4.68;;
66384;SDS011;53426;55.872;37.462;2022-10-16T06:16:18;8.77;;;4.43;;
66384;SDS011;53426;55.872;37.462;2022-10-16T06:18:44;8.88;;;5.20;;
66384;SDS011;53426;55.872;37.462;2022-10-16T06:21:20;12.40;;;4.93;;
66384;SDS011;53426;55.872;37.462;2022-10-16T06:23:47;5.90;;;4.85;;
66384;SDS011;53426;55.872;37.462;2022-10-16T06:26:14;12.27;;;4.88;;
66384;SDS011;53426;55.872;37.462;2022-10-16T06:28:42;22.98;;;5.43;;
66384;SDS011;53426;55.872;37.462;2022-10-16T06:34:25;10.85;;;5.00;;
66384;SDS011;53426;55.872;37.462;2022-10-16T06:37:59;8.50;;;5.28;;
66384;SDS011;53426;55.872;37.462;2022-10-16T06:43:24;15.80;;;4.72;;
66384;SDS011;53426;55.872;37.462;2022-10-16T06:45:55;9.60;;;4.65;;
66384;SDS011;53426;55.872;37.462;2022-10-16T06:51:39;9.38;;;4.45;;
66384;SDS011;53426;55.872;37.462;2022-10-16T06:54:06;15.43;;;5.22;;
66384;SDS011;53426;55.872;37.462;2022-10-16T06:56:32;7.47;;;5.18;;
66384;SDS011;53426;55.872;37.462;2022-10-16T06:58:59;11.02;;;5.00;;
66384;SDS011;53426;55.872;37.462;2022-10-16T07:01:27;11.55;;;5.00;;
66384;SDS011;53426;55.872;37.462;2022-10-16T07:03:53;9.15;;;5.20;;
66384;SDS011;53426;55.872;37.462;2022-10-16T07:06:20;8.98;;;4.90;;
66384;SDS011;53426;55.872;37.462;2022-10-16T07:08:47;9.98;;;5.10;;
66384;SDS011;53426;55.872;37.462;2022-10-16T07:11:15;11.00;;;5.70;;
66384;SDS011;53426;55.872;37.462;2022-10-16T07:13:46;10.15;;;5.43;;
66384;SDS011;53426;55.872;37.462;2022-10-16T07:18:44;10.60;;;4.95;;
66384;SDS011;53426;55.872;37.462;2022-10-16T07:21:15;15.80;;;5.30;;
66384;SDS011;53426;55.872;37.462;2022-10-16T07:23:42;13.38;;;5.20;;
66384;SDS011;53426;55.872;37.462;2022-10-16T07:26:22;8.30;;;5.40;;
66384;SDS011;53426;55.872;37.462;2022-10-16T07:28:52;8.90;;;5.13;;
66384;SDS011;53426;55.872;37.462;2022-10-16T07:37:11;9.32;;;4.75;;
66384;SDS011;53426;55.872;37.462;2022-10-16T07:39:40;13.77;;;5.45;;
66384;SDS011;53426;55.872;37.462;2022-10-16T07:42:05;15.98;;;5.40;;
66384;SDS011;53426;55.872;37.462;2022-10-16T07:44:32;8.93;;;5.78;;
66384;SDS011;53426;55.872;37.462;2022-10-16T07:46:58;12.25;;;6.13;;
66384;SDS011;53426;55.872;37.462;2022-10-16T07:49:24;8.52;;;6.20;;
66384;SDS011;53426;55.872;37.462;2022-10-16T07:51:54;13.85;;;6.68;;
66384;SDS011;53426;55.872;37.462;2022-10-16T07:54:21;13.85;;;5.60;;
66384;SDS011;53426;55.872;37.462;2022-10-16T07:57:51;9.95;;;5.65;;
66384;SDS011;53426;55.872;37.462;2022-10-16T08:03:50;10.95;;;6.22;;
66384;SDS011;53426;55.872;37.462;2022-10-16T08:06:17;13.73;;;6.25;;
66384;SDS011;53426;55.872;37.462;2022-10-16T08:11:34;10.63;;;6.90;;
66384;SDS011;53426;55.872;37.462;2022-10-16T08:16:57;14.90;;;6.35;;
66384;SDS011;53426;55.872;37.462;2022-10-16T08:19:28;8.32;;;6.38;;
66384;SDS011;53426;55.872;37.462;2022-10-16T08:24:46;11.88;;;6.03;;
66384;SDS011;53426;55.872;37.462;2022-10-16T08:27:12;13.02;;;6.60;;
66384;SDS011;53426;55.872;37.462;2022-10-16T08:32:53;15.85;;;6.40;;
66384;SDS011;53426;55.872;37.462;2022-10-16T08:39:13;11.05;;;5.72;;
66384;SDS011;53426;55.872;37.462;2022-10-16T08:44:42;17.50;;;6.00;;
66384;SDS011;53426;55.872;37.462;2022-10-16T08:49:53;8.02;;;5.25;;
66384;SDS011;53426;55.872;37.462;2022-10-16T08:52:24;7.80;;;5.82;;
66384;SDS011;53426;55.872;37.462;2022-10-16T08:54:57;14.77;;;5.55;;
66384;SDS011;53426;55.872;37.462;2022-10-16T08:57:25;15.90;;;5.40;;
66384;SDS011;53426;55.872;37.462;2022-10-16T08:59:57;12.13;;;5.45;;
66384;SDS011;53426;55.872;37.462;2022-10-16T09:02:32;8.57;;;5.35;;
66384;SDS011;53426;55.872;37.462;2022-10-16T09:08:00;11.63;;;4.40;;
66384;SDS011;53426;55.872;37.462;2022-10-16T09:10:37;7.15;;;4.47;;
66384;SDS011;53426;55.872;37.462;2022-10-16T09:18:23;10.10;;;4.15;;
66384;SDS011;53426;55.872;37.462;2022-10-16T09:23:42;6.38;;;4.18;;
66384;SDS011;53426;55.872;37.462;2022-10-16T09:26:10;9.65;;;3.88;;
66384;SDS011;53426;55.872;37.462;2022-10-16T09:28:38;5.97;;;4.20;;
66384;SDS011;53426;55.872;37.462;2022-10-16T09:31:05;6.72;;;3.95;;
66384;SDS011;53426;55.872;37.462;2022-10-16T09:33:35;11.13;;;4.15;;
66384;SDS011;53426;55.872;37.462;2022-10-16T09:36:06;7.25;;;3.47;;
66384;SDS011;53426;55.872;37.462;2022-10-16T09:38:38;8.85;;;4.30;;
66384;SDS011;53426;55.872;37.462;2022-10-16T09:41:17;6.32;;;4.15;;
66384;SDS011;53426;55.872;37.462;2022-10-16T09:43:59;4.80;;;3.90;;
66384;SDS011;53426;55.872;37.462;2022-10-16T09:49:23;15.18;;;4.25;;
66384;SDS011;53426;55.872;37.462;2022-10-16T09:52:03;6.45;;;3.97;;
66384;SDS011;53426;55.872;37.462;2022-10-16T09:54:51;9.25;;;3.75;;
66384;SDS011;53426;55.872;37.462;2022-10-16T09:57:21;8.52;;;4.32;;
66384;SDS011;53426;55.872;37.462;2022-10-16T09:59:49;8.93;;;3.53;;
66384;SDS011;53426;55.872;37.462;2022-10-16T10:02:36;3.80;;;3.38;;
66384;SDS011;53426;55.872;37.462;2022-10-16T10:05:06;9.07;;;3.50;;
66384;SDS011;53426;55.872;37.462;2022-10-16T10:07:45;15.50;;;3.85;;
66384;SDS011;53426;55.872;37.462;2022-10-16T10:10:24;8.07;;;4.15;;
66384;SDS011;53426;55.872;37.462;2022-10-16T10:12:56;6.03;;;3.55;;
66384;SDS011;53426;55.872;37.462;2022-10-16T10:15:25;4.65;;;3.00;;
66384;SDS011;53426;55.872;37.462;2022-10-16T10:17:58;6.93;;;3.78;;
66384;SDS011;53426;55.872;37.462;2022-10-16T10:23:23;12.20;;;4.10;;
66384;SDS011;53426;55.872;37.462;2022-10-16T10:26:04;5.38;;;3.45;;
66384;SDS011;53426;55.872;37.462;2022-10-16T10:31:25;6.15;;;3.20;;
66384;SDS011;53426;55.872;37.462;2022-10-16T10:34:00;5.50;;;3.20;;
66384;SDS011;53426;55.872;37.462;2022-10-16T10:36:38;8.25;;;3.83;;
66384;SDS011;53426;55.872;37.462;2022-10-16T10:39:08;14.60;;;3.63;;
66384;SDS011;53426;55.872;37.462;2022-10-16T10:50:14;5.75;;;4.15;;
66384;SDS011;53426;55.872;37.462;2022-10-16T10:55:59;4.70;;;3.58;;
66384;SDS011;53426;55.872;37.462;2022-10-16T10:58:42;4.82;;;3.55;;
66384;SDS011;53426;55.872;37.462;2022-10-16T11:01:14;9.70;;;3.28;;
66384;SDS011;53426;55.872;37.462;2022-10-16T11:03:51;5.63;;;3.80;;
66384;SDS011;53426;55.872;37.462;2022-10-16T11:06:33;8.35;;;4.00;;
66384;SDS011;53426;55.872;37.462;2022-10-16T11:09:10;4.70;;;3.33;;
66384;SDS011;53426;55.872;37.462;2022-10-16T11:11:43;3.95;;;3.28;;
66384;SDS011;53426;55.872;37.462;2022-10-16T11:16:58;10.57;;;4.50;;
66384;SDS011;53426;55.872;37.462;2022-10-16T11:24:42;11.68;;;3.95;;
66384;SDS011;53426;55.872;37.462;2022-10-16T11:27:16;20.50;;;5.13;;
66384;SDS011;53426;55.872;37.462;2022-10-16T11:29:57;8.30;;;3.90;;
66384;SDS011;53426;55.872;37.462;2022-10-16T11:32:32;7.13;;;4.10;;
66384;SDS011;53426;55.872;37.462;2022-10-16T11:35:17;12.20;;;4.50;;
66384;SDS011;53426;55.872;37.462;2022-10-16T11:37:47;14.77;;;4.18;;
66384;SDS011;53426;55.872;37.462;2022-10-16T11:40:19;6.07;;;3.95;;
66384;SDS011;53426;55.872;37.462;2022-10-16T11:42:51;8.75;;;4.68;;
66384;SDS011;53426;55.872;37.462;2022-10-16T11:46:29;9.77;;;4.70;;
66384;SDS011;53426;55.872;37.462;2022-10-16T11:51:13;8.15;;;4.38;;
66384;SDS011;53426;55.872;37.462;2022-10-16T11:53:53;9.50;;;4.47;;
66384;SDS011;53426;55.872;37.462;2022-10-16T11:56:46;8.38;;;4.65;;
66384;SDS011;53426;55.872;37.462;2022-10-16T11:59:25;9.57;;;4.25;;
66384;SDS011;53426;55.872;37.462;2022-10-16T12:01:54;7.30;;;4.40;;
66384;SDS011;53426;55.872;37.462;2022-10-16T12:04:39;6.32;;;3.70;;
66384;SDS011;53426;55.872;37.462;2022-10-16T12:07:14;7.82;;;3.90;;
66384;SDS011;53426;55.872;37.462;2022-10-16T12:09:43;15.70;;;4.72;;
66384;SDS011;53426;55.872;37.462;2022-10-16T12:15:17;5.57;;;4.30;;
66384;SDS011;53426;55.872;37.462;2022-10-16T12:17:55;8.90;;;4.13;;
66384;SDS011;53426;55.872;37.462;2022-10-16T12:20:32;9.05;;;3.83;;
66384;SDS011;53426;55.872;37.462;2022-10-16T12:23:02;8.13;;;3.67;;
66384;SDS011;53426;55.872;37.462;2022-10-16T12:25:30;7.88;;;3.70;;
66384;SDS011;53426;55.872;37.462;2022-10-16T12:30:33;7.97;;;4.00;;
66384;SDS011;53426;55.872;37.462;2022-10-16T12:33:02;4.93;;;3.88;;
66384;SDS011;53426;55.872;37.462;2022-10-16T12:35:34;5.60;;;3.97;;
66384;SDS011;53426;55.872;37.462;2022-10-16T12:38:15;16.55;;;3.97;;
66384;SDS011;53426;55.872;37.462;2022-10-16T12:40:44;7.60;;;3.45;;
66384;SDS011;53426;55.872;37.462;2022-10-16T12:48:35;7.18;;;4.00;;
66384;SDS011;53426;55.872;37.462;2022-10-16T12:54:04;6.13;;;4.38;;
66384;SDS011;53426;55.872;37.462;2022-10-16T12:56:58;5.63;;;3.97;;
66384;SDS011;53426;55.872;37.462;2022-10-16T12:59:58;7.55;;;4.47;;
66384;SDS011;53426;55.872;37.462;2022-10-16T13:16:05;8.40;;;4.07;;
66384;SDS011;53426;55.872;37.462;2022-10-16T13:18:54;13.52;;;4.38;;
66384;SDS011;53426;55.872;37.462;2022-10-16T13:24:41;7.22;;;4.40;;
66384;SDS011;53426;55.872;37.462;2022-10-16T13:27:13;6.15;;;4.50;;
66384;SDS011;53426;55.872;37.462;2022-10-16T13:30:00;13.55;;;4.13;;
66384;SDS011;53426;55.872;37.462;2022-10-16T13:32:34;7.07;;;3.97;;
66384;SDS011;53426;55.872;37.462;2022-10-16T13:35:00;12.27;;;3.90;;
66384;SDS011;53426;55.872;37.462;2022-10-16T13:37:43;19.52;;;4.72;;
66384;SDS011;53426;55.872;37.462;2022-10-16T13:40:17;13.38;;;4.38;;
66384;SDS011;53426;55.872;37.462;2022-10-16T13:42:49;14.60;;;4.40;;
66384;SDS011;53426;55.872;37.462;2022-10-16T13:45:17;7.35;;;4.55;;
66384;SDS011;53426;55.872;37.462;2022-10-16T13:47:47;9.07;;;5.57;;
66384;SDS011;53426;55.872;37.462;2022-10-16T13:50:15;13.63;;;5.03;;
66384;SDS011;53426;55.872;37.462;2022-10-16T13:52:43;15.30;;;4.47;;
66384;SDS011;53426;55.872;37.462;2022-10-16T13:55:14;11.30;;;5.20;;
66384;SDS011;53426;55.872;37.462;2022-10-16T13:57:44;7.97;;;4.65;;
66384;SDS011;53426;55.872;37.462;2022-10-16T14:00:17;13.00;;;5.03;;
66384;SDS011;53426;55.872;37.462;2022-10-16T14:02:52;6.70;;;4.32;;
66384;SDS011;53426;55.872;37.462;2022-10-16T14:05:27;11.70;;;5.03;;
66384;SDS011;53426;55.872;37.462;2022-10-16T14:07:53;23.05;;;5.13;;
66384;SDS011;53426;55.872;37.462;2022-10-16T14:10:31;14.07;;;4.90;;
66384;SDS011;53426;55.872;37.462;2022-10-16T14:12:59;6.88;;;4.22;;
66384;SDS011;53426;55.872;37.462;2022-10-16T14:15:27;6.47;;;4.70;;
66384;SDS011;53426;55.872;37.462;2022-10-16T14:17:56;8.60;;;4.75;;
66384;SDS011;53426;55.872;37.462;2022-10-16T14:20:28;11.52;;;5.32;;
66384;SDS011;53426;55.872;37.462;2022-10-16T14:23:00;8.85;;;4.70;;
66384;SDS011;53426;55.872;37.462;2022-10-16T14:25:47;14.48;;;5.15;;
66384;SDS011;53426;55.872;37.462;2022-10-16T14:28:21;19.00;;;5.20;;
66384;SDS011;53426;55.872;37.462;2022-10-16T14:30:54;11.95;;;5.82;;
66384;SDS011;53426;55.872;37.462;2022-10-16T14:36:04;12.38;;;6.03;;
66384;SDS011;53426;55.872;37.462;2022-10-16T14:38:31;16.92;;;5.80;;
66384;SDS011;53426;55.872;37.462;2022-10-16T14:41:00;13.15;;;5.53;;
66384;SDS011;53426;55.872;37.462;2022-10-16T14:43:36;14.60;;;5.78;;
66384;SDS011;53426;55.872;37.462;2022-10-16T14:46:11;11.38;;;6.03;;
66384;SDS011;53426;55.872;37.462;2022-10-16T14:48:41;16.80;;;5.95;;
66384;SDS011;53426;55.872;37.462;2022-10-16T14:51:13;12.02;;;5.93;;
66384;SDS011;53426;55.872;37.462;2022-10-16T14:53:40;13.15;;;5.25;;
66384;SDS011;53426;55.872;37.462;2022-10-16T14:56:09;14.13;;;5.32;;
66384;SDS011;53426;55.872;37.462;2022-10-16T14:58:42;16.77;;;5.90;;
66384;SDS011;53426;55.872;37.462;2022-10-16T15:01:10;11.07;;;5.38;;
66384;SDS011;53426;55.872;37.462;2022-10-16T15:03:38;18.50;;;5.28;;
66384;SDS011;53426;55.872;37.462;2022-10-16T15:06:08;9.93;;;5.57;;
66384;SDS011;53426;55.872;37.462;2022-10-16T15:08:37;6.65;;;5.35;;
66384;SDS011;53426;55.872;37.462;2022-10-16T15:12:09;10.18;;;5.18;;
66384;SDS011;53426;55.872;37.462;2022-10-16T15:15:32;8.75;;;4.50;;
66384;SDS011;53426;55.872;37.462;2022-10-16T15:18:07;10.80;;;5.47;;
66384;SDS011;53426;55.872;37.462;2022-10-16T15:20:40;10.13;;;5.50;;
66384;SDS011;53426;55.872;37.462;2022-10-16T15:23:16;8.43;;;5.20;;
66384;SDS011;53426;55.872;37.462;2022-10-16T15:25:52;5.60;;;3.92;;
66384;SDS011;53426;55.872;37.462;2022-10-16T15:28:30;5.97;;;4.38;;
66384;SDS011;53426;55.872;37.462;2022-10-16T15:31:04;9.63;;;4.30;;
66384;SDS011;53426;55.872;37.462;2022-10-16T15:33:36;15.88;;;4.80;;
66384;SDS011;53426;55.872;37.462;2022-10-16T15:36:07;8.48;;;5.00;;
66384;SDS011;53426;55.872;37.462;2022-10-16T15:38:36;7.22;;;4.57;;
66384;SDS011;53426;55.872;37.462;2022-10-16T15:41:08;11.00;;;4.93;;
66384;SDS011;53426;55.872;37.462;2022-10-16T15:43:40;10.60;;;4.60;;
66384;SDS011;53426;55.872;37.462;2022-10-16T15:46:12;6.80;;;4.53;;
66384;SDS011;53426;55.872;37.462;2022-10-16T15:48:46;8.65;;;4.60;;
66384;SDS011;53426;55.872;37.462;2022-10-16T15:51:15;8.07;;;4.95;;
66384;SDS011;53426;55.872;37.462;2022-10-16T15:53:58;6.18;;;4.55;;
66384;SDS011;53426;55.872;37.462;2022-10-16T15:56:34;9.63;;;5.15;;
66384;SDS011;53426;55.872;37.462;2022-10-16T15:59:07;7.30;;;4.47;;
66384;SDS011;53426;55.872;37.462;2022-10-16T16:01:40;6.97;;;4.47;;
66384;SDS011;53426;55.872;37.462;2022-10-16T16:04:11;9.60;;;4.47;;
66384;SDS011;53426;55.872;37.462;2022-10-16T16:06:42;8.68;;;4.60;;
66384;SDS011;53426;55.872;37.462;2022-10-16T16:09:15;7.15;;;4.97;;
66384;SDS011;53426;55.872;37.462;2022-10-16T16:11:48;10.48;;;5.05;;
66384;SDS011;53426;55.872;37.462;2022-10-16T16:14:21;16.65;;;5.13;;
66384;SDS011;53426;55.872;37.462;2022-10-16T16:16:54;14.70;;;5.60;;
66384;SDS011;53426;55.872;37.462;2022-10-16T16:19:30;13.60;;;5.80;;
66384;SDS011;53426;55.872;37.462;2022-10-16T16:22:03;8.90;;;5.43;;
66384;SDS011;53426;55.872;37.462;2022-10-16T16:24:35;9.02;;;4.97;;
66384;SDS011;53426;55.872;37.462;2022-10-16T16:27:08;11.45;;;4.50;;
66384;SDS011;53426;55.872;37.462;2022-10-16T16:29:40;12.70;;;5.38;;
66384;SDS011;53426;55.872;37.462;2022-10-16T16:32:18;8.25;;;4.45;;
66384;SDS011;53426;55.872;37.462;2022-10-16T16:34:56;9.95;;;5.20;;
66384;SDS011;53426;55.872;37.462;2022-10-16T16:37:44;10.32;;;5.00;;
66384;SDS011;53426;55.872;37.462;2022-10-16T16:40:15;7.50;;;5.20;;
66384;SDS011;53426;55.872;37.462;2022-10-16T16:42:48;10.48;;;5.60;;
66384;SDS011;53426;55.872;37.462;2022-10-16T16:45:18;12.73;;;4.72;;
66384;SDS011;53426;55.872;37.462;2022-10-16T16:47:49;13.68;;;5.78;;
66384;SDS011;53426;55.872;37.462;2022-10-16T16:50:23;11.88;;;5.35;;
66384;SDS011;53426;55.872;37.462;2022-10-16T16:52:55;10.98;;;5.10;;
66384;SDS011;53426;55.872;37.462;2022-10-16T16:55:28;10.20;;;5.68;;
66384;SDS011;53426;55.872;37.462;2022-10-16T16:57:59;13.05;;;5.63;;
66384;SDS011;53426;55.872;37.462;2022-10-16T17:00:31;7.75;;;5.00;;
66384;SDS011;53426;55.872;37.462;2022-10-16T17:03:05;11.02;;;5.50;;
66384;SDS011;53426;55.872;37.462;2022-10-16T17:05:38;10.93;;;5.28;;
66384;SDS011;53426;55.872;37.462;2022-10-16T17:08:09;17.75;;;5.28;;